Time;durP1;ratioP1;P1;durP2;ratioP2;P2;SDS_P1;SDS_P2;PMS_P1;PMS_P2;Temp;Humidity;BMP_temperature;BMP_pressure;BME280_temperature;BME280_humidity;BME280_pressure;Samples;Min_cycle;Max_cycle;Signal;HPM_P1;HPM_P2
2022/12/23 00:02:16;;;;;;;22.10;12.87;;;7.40;99.90;;;;;;5076465;28;20244;-73
2022/12/23 00:04:41;;;;;;;20.57;11.80;;;7.40;99.90;;;;;;5071809;28;20209;-73
2022/12/23 00:07:07;;;;;;;20.40;11.83;;;7.40;99.90;;;;;;5070933;28;20237;-73
2022/12/23 00:09:32;;;;;;;20.33;12.10;;;7.30;99.90;;;;;;5070606;28;20249;-73
2022/12/23 00:17:26;;;;;;;21.63;11.80;;;7.30;99.90;;;;;;5071018;28;20217;-73
2022/12/23 00:19:52;;;;;;;21.30;12.50;;;7.30;99.90;;;;;;5068815;28;20202;-76
2022/12/23 00:22:17;;;;;;;23.87;13.47;;;7.40;99.90;;;;;;5067240;28;20211;-72
2022/12/23 00:24:43;;;;;;;21.27;12.53;;;7.30;99.90;;;;;;5070778;28;20631;-73
2022/12/23 00:27:09;;;;;;;25.03;12.97;;;7.30;99.90;;;;;;5071115;28;20637;-72
2022/12/23 00:29:34;;;;;;;20.97;11.80;;;7.30;99.90;;;;;;5068700;28;20639;-73
2022/12/23 00:32:00;;;;;;;22.10;12.17;;;7.30;99.90;;;;;;5070506;28;20210;-70
2022/12/23 00:34:25;;;;;;;21.47;11.83;;;7.30;99.90;;;;;;5070813;28;20285;-73
2022/12/23 00:36:51;;;;;;;21.00;11.90;;;7.30;99.90;;;;;;5070540;28;20210;-73
2022/12/23 00:44:45;;;;;;;20.77;11.20;;;7.30;99.90;;;;;;5068182;28;20294;-73
2022/12/23 00:49:40;;;;;;;16.93;10.83;;;7.30;99.90;;;;;;5071815;22;20340;-73
2022/12/23 00:49:56;;;;;;;16.57;9.93;;;7.30;99.90;;;;;;5033745;28;20215;-72
2022/12/23 00:52:22;;;;;;;18.00;10.43;;;7.30;99.90;;;;;;5015719;28;20204;-72
2022/12/23 00:54:47;;;;;;;18.50;10.40;;;7.30;99.90;;;;;;5025966;28;20213;-72
2022/12/23 00:57:13;;;;;;;20.70;11.23;;;7.30;99.90;;;;;;4999269;28;20256;-71
2022/12/23 00:59:38;;;;;;;19.23;10.93;;;7.40;99.90;;;;;;5004603;28;20664;-71
2022/12/23 01:07:33;;;;;;;18.20;10.33;;;7.40;99.90;;;;;;4979956;28;20205;-72
2022/12/23 01:09:58;;;;;;;21.73;11.73;;;7.40;99.90;;;;;;4985593;28;20209;-72
2022/12/23 01:12:24;;;;;;;17.20;10.40;;;7.40;99.90;;;;;;4986227;28;20177;-71
2022/12/23 01:14:49;;;;;;;18.17;10.37;;;7.40;99.90;;;;;;4984176;28;20181;-72
2022/12/23 01:17:15;;;;;;;18.67;10.80;;;7.40;99.90;;;;;;4987522;28;20209;-72
2022/12/23 01:19:41;;;;;;;18.73;10.93;;;7.40;99.90;;;;;;4983039;28;20212;-74
2022/12/23 01:22:06;;;;;;;21.07;11.47;;;7.40;99.90;;;;;;4988550;28;20234;-71
2022/12/23 01:24:32;;;;;;;16.73;10.67;;;7.40;99.90;;;;;;4987733;28;20638;-72
2022/12/23 01:26:58;;;;;;;21.50;11.33;;;7.40;99.90;;;;;;4973257;28;20290;-72
2022/12/23 01:29:24;;;;;;;21.33;11.83;;;7.40;99.90;;;;;;4987669;28;20205;-72
2022/12/23 01:31:50;;;;;;;19.50;11.53;;;7.40;99.90;;;;;;4985656;28;20204;-73
2022/12/23 01:34:16;;;;;;;19.20;12.03;;;7.40;99.90;;;;;;4985638;28;20209;-73
2022/12/23 01:36:42;;;;;;;20.93;12.03;;;7.40;99.90;;;;;;4989726;28;20217;-73
2022/12/23 01:39:07;;;;;;;21.10;11.93;;;7.40;99.90;;;;;;4987892;28;20193;-72
2022/12/23 01:44:50;;;;;;;23.93;12.37;;;7.40;99.90;;;;;;4985554;28;20228;-72
2022/12/23 01:47:22;;;;;;;22.70;13.00;;;7.40;99.90;;;;;;4984104;28;20224;-72
2022/12/23 01:49:51;;;;;;;24.33;13.00;;;7.40;99.90;;;;;;4988397;28;20212;-73
2022/12/23 01:52:17;;;;;;;20.40;12.10;;;7.40;99.90;;;;;;4986325;28;20210;-72
2022/12/23 01:54:44;;;;;;;24.77;14.50;;;7.40;99.90;;;;;;4986276;28;20217;-73
2022/12/23 01:57:10;;;;;;;20.87;12.37;;;7.40;99.90;;;;;;4978635;28;20213;-72
2022/12/23 02:05:06;;;;;;;24.30;13.27;;;7.40;99.90;;;;;;4985733;28;20217;-72
2022/12/23 02:10:16;;;;;;;23.03;13.93;;;7.40;99.90;;;;;;4987988;28;20337;-72
2022/12/23 02:13:00;;;;;;;28.93;14.97;;;7.40;99.90;;;;;;4975023;28;20769;-72
2022/12/23 02:18:37;;;;;;;25.57;13.93;;;7.40;99.90;;;;;;4983509;28;20213;-72
2022/12/23 02:21:26;;;;;;;25.07;15.03;;;7.40;99.90;;;;;;4982537;28;20178;-72
2022/12/23 02:24:32;;;;;;;28.33;15.13;;;7.40;99.90;;;;;;4985403;28;20684;-72
2022/12/23 02:27:09;;;;;;;25.57;14.40;;;7.30;99.90;;;;;;4959659;28;20210;-72
2022/12/23 02:30:06;;;;;;;28.70;15.50;;;7.30;99.90;;;;;;5020287;28;20236;-72
2022/12/23 02:32:42;;;;;;;27.57;14.67;;;7.40;99.90;;;;;;4990196;28;20246;-72
2022/12/23 02:35:15;;;;;;;25.10;14.47;;;7.40;99.90;;;;;;4985643;28;20206;-72
2022/12/23 02:38:26;;;;;;;26.20;14.97;;;7.40;99.90;;;;;;4991949;28;20419;-72
2022/12/23 02:41:27;;;;;;;22.13;13.93;;;7.40;99.90;;;;;;4971459;28;20723;-72
2022/12/23 02:44:13;;;;;;;30.57;17.03;;;7.30;99.90;;;;;;4988182;28;20719;-69
2022/12/23 02:46:46;;;;;;;28.80;15.47;;;7.30;99.90;;;;;;4986691;28;20630;-71
2022/12/23 02:49:24;;;;;;;27.43;14.50;;;7.30;99.90;;;;;;4985258;28;20635;-72
2022/12/23 02:51:54;;;;;;;31.93;15.70;;;7.30;99.90;;;;;;4989350;28;20209;-73
2022/12/23 02:54:28;;;;;;;29.90;15.77;;;7.30;99.90;;;;;;4986469;28;20185;-73
2022/12/23 02:56:55;;;;;;;28.03;15.40;;;7.30;99.90;;;;;;4998869;28;20305;-71
2022/12/23 02:59:26;;;;;;;31.37;16.00;;;7.30;99.90;;;;;;4988728;28;20228;-72
2022/12/23 03:01:53;;;;;;;32.03;16.03;;;7.20;99.90;;;;;;4982144;28;20225;-72
2022/12/23 03:04:20;;;;;;;28.80;15.53;;;7.30;99.90;;;;;;4988251;28;20205;-72
2022/12/23 03:06:50;;;;;;;29.00;15.20;;;7.30;99.90;;;;;;4985923;28;20217;-72
2022/12/23 03:09:31;;;;;;;30.50;16.20;;;7.30;99.90;;;;;;5016380;28;20648;-69
2022/12/23 03:12:11;;;;;;;31.67;15.97;;;7.20;99.90;;;;;;4990222;28;20184;-72
2022/12/23 03:14:39;;;;;;;29.33;15.60;;;7.20;99.90;;;;;;4985918;28;20198;-72
2022/12/23 03:17:35;;;;;;;28.87;15.10;;;7.30;99.90;;;;;;5017624;28;20292;-71
2022/12/23 03:20:20;;;;;;;32.23;16.57;;;7.30;99.90;;;;;;4985583;28;20682;-72
2022/12/23 03:22:56;;;;;;;28.00;14.33;;;7.30;99.90;;;;;;4988367;28;20561;-72
2022/12/23 03:26:03;;;;;;;27.37;14.77;;;7.30;99.90;;;;;;4988026;28;20703;-72
2022/12/23 03:28:44;;;;;;;27.23;14.33;;;7.30;99.90;;;;;;4979893;28;20209;-72
2022/12/23 03:31:17;;;;;;;28.00;15.60;;;7.30;99.90;;;;;;4989320;28;20222;-72
2022/12/23 03:33:49;;;;;;;25.63;15.10;;;7.40;99.90;;;;;;4986107;28;20217;-72
2022/12/23 03:36:21;;;;;;;35.47;17.53;;;7.40;99.90;;;;;;5016344;28;20266;-72
2022/12/23 03:38:48;;;;;;;26.23;14.30;;;7.40;99.90;;;;;;4986426;28;20173;-72
2022/12/23 03:41:20;;;;;;;28.33;15.60;;;7.30;99.90;;;;;;4985814;28;20206;-71
2022/12/23 03:43:59;;;;;;;28.63;14.47;;;7.30;99.90;;;;;;4985077;28;20720;-72
2022/12/23 03:46:37;;;;;;;27.20;13.73;;;7.30;99.90;;;;;;4983451;28;20304;-72
2022/12/23 03:49:08;;;;;;;29.63;14.90;;;7.30;99.90;;;;;;4982818;28;20216;-71
2022/12/23 03:51:40;;;;;;;28.80;15.00;;;7.30;99.90;;;;;;4985797;28;20352;-72
2022/12/23 03:54:13;;;;;;;32.27;15.43;;;7.30;99.90;;;;;;4986177;28;20653;-70
2022/12/23 03:56:43;;;;;;;28.47;15.27;;;7.30;99.90;;;;;;4989345;28;20669;-72
2022/12/23 03:59:15;;;;;;;27.10;15.03;;;7.30;99.90;;;;;;4986899;28;20268;-68
2022/12/23 04:01:54;;;;;;;36.67;16.20;;;7.30;99.90;;;;;;4988082;28;20201;-73
2022/12/23 04:04:46;;;;;;;31.70;15.43;;;7.30;99.90;;;;;;4987430;28;20201;-72
2022/12/23 04:07:38;;;;;;;30.30;16.00;;;7.30;99.90;;;;;;4986870;28;20225;-70
2022/12/23 04:10:05;;;;;;;29.43;15.40;;;7.30;99.90;;;;;;4973029;28;20820;-71
2022/12/23 04:12:31;;;;;;;34.53;16.93;;;7.40;99.90;;;;;;4990539;28;20220;-72
2022/12/23 04:14:56;;;;;;;37.70;17.50;;;7.40;99.90;;;;;;4984424;28;20545;-72
2022/12/23 04:17:22;;;;;;;30.83;16.23;;;7.40;99.90;;;;;;4981746;28;20217;-72
2022/12/23 04:19:48;;;;;;;33.23;16.50;;;7.40;99.90;;;;;;4986711;28;20284;-72
2022/12/23 04:22:14;;;;;;;30.73;16.33;;;7.40;99.90;;;;;;4985073;28;20308;-70
2022/12/23 04:24:40;;;;;;;33.93;17.10;;;7.30;99.90;;;;;;4987555;28;20206;-71
2022/12/23 04:27:08;;;;;;;29.03;16.87;;;7.30;99.90;;;;;;4986758;28;20609;-72
2022/12/23 04:29:34;;;;;;;35.20;17.80;;;7.30;99.90;;;;;;4983246;28;20208;-72
2022/12/23 04:31:59;;;;;;;30.90;16.37;;;7.30;99.90;;;;;;4987040;28;20202;-72
2022/12/23 04:34:25;;;;;;;34.03;18.50;;;7.30;99.90;;;;;;4987307;28;20635;-72
2022/12/23 04:36:51;;;;;;;32.43;18.07;;;7.30;99.90;;;;;;4981180;28;20221;-71
2022/12/23 04:39:16;;;;;;;36.70;18.83;;;7.30;99.90;;;;;;4988148;28;20174;-70
2022/12/23 04:41:42;;;;;;;38.10;18.03;;;7.30;99.90;;;;;;4985572;28;20228;-72
2022/12/23 04:44:08;;;;;;;37.47;18.67;;;7.30;99.90;;;;;;5013653;28;20234;-71
2022/12/23 04:46:33;;;;;;;40.23;19.37;;;7.30;99.90;;;;;;4988562;28;20213;-72
2022/12/23 04:48:59;;;;;;;40.43;19.30;;;7.30;99.90;;;;;;4984378;28;20214;-70
2022/12/23 04:51:25;;;;;;;41.67;20.43;;;7.30;99.90;;;;;;4985228;28;20599;-72
2022/12/23 04:53:50;;;;;;;41.53;20.70;;;7.30;99.90;;;;;;4987642;28;20189;-72
2022/12/23 04:56:16;;;;;;;45.53;20.20;;;7.30;99.90;;;;;;4988329;28;20240;-72
2022/12/23 04:58:42;;;;;;;40.23;20.33;;;7.30;99.90;;;;;;4990394;28;20251;-70
2022/12/23 05:01:11;;;;;;;50.43;25.33;;;7.30;99.90;;;;;;4982777;28;20410;-71
2022/12/23 05:03:37;;;;;;;42.00;22.70;;;7.30;99.90;;;;;;4982289;28;20225;-72
2022/12/23 05:06:04;;;;;;;41.30;21.83;;;7.30;99.90;;;;;;4987479;28;20547;-69
2022/12/23 05:08:30;;;;;;;41.77;21.00;;;7.30;99.90;;;;;;4989456;28;20643;-72
2022/12/23 05:10:56;;;;;;;36.10;17.73;;;7.30;99.90;;;;;;4979625;28;20257;-72
2022/12/23 05:13:22;;;;;;;41.10;20.13;;;7.30;99.90;;;;;;4988235;28;20225;-72
2022/12/23 05:15:49;;;;;;;36.43;19.00;;;7.40;99.90;;;;;;4983372;28;20218;-72
2022/12/23 05:18:15;;;;;;;34.10;17.83;;;7.40;99.90;;;;;;4987289;28;20197;-72
2022/12/23 05:20:41;;;;;;;37.13;17.67;;;7.40;99.90;;;;;;4981279;28;20181;-72
2022/12/23 05:23:06;;;;;;;30.33;16.33;;;7.50;99.90;;;;;;4982926;28;20222;-72
2022/12/23 05:25:36;;;;;;;31.57;16.07;;;7.40;99.90;;;;;;4984977;28;20201;-73
2022/12/23 05:28:04;;;;;;;32.47;17.23;;;7.40;99.90;;;;;;4984781;28;20717;-73
2022/12/23 05:30:29;;;;;;;29.03;15.80;;;7.40;99.90;;;;;;4982367;28;20229;-70
2022/12/23 05:32:56;;;;;;;32.70;16.23;;;7.40;99.90;;;;;;4984733;28;20706;-71
2022/12/23 05:35:23;;;;;;;33.07;17.33;;;7.50;99.90;;;;;;4986101;28;20215;-72
2022/12/23 05:37:49;;;;;;;32.33;16.20;;;7.50;99.90;;;;;;4980091;28;20206;-72
2022/12/23 05:40:15;;;;;;;33.80;16.17;;;7.50;99.90;;;;;;4986966;28;20201;-73
2022/12/23 05:42:41;;;;;;;31.73;16.23;;;7.50;99.90;;;;;;4983890;28;20225;-72
2022/12/23 05:45:07;;;;;;;32.07;16.97;;;7.50;99.90;;;;;;5016331;28;20184;-71
2022/12/23 05:47:33;;;;;;;32.17;16.87;;;7.60;99.90;;;;;;4988948;28;20711;-72
2022/12/23 05:49:58;;;;;;;30.63;15.43;;;7.60;99.90;;;;;;4979703;28;20267;-72
2022/12/23 05:52:24;;;;;;;28.87;16.00;;;7.60;99.90;;;;;;4986880;28;20208;-73
2022/12/23 05:54:50;;;;;;;30.07;14.77;;;7.60;99.90;;;;;;4988426;28;20312;-72
2022/12/23 05:57:15;;;;;;;27.27;15.90;;;7.60;99.90;;;;;;4984608;28;20194;-72
2022/12/23 05:59:41;;;;;;;27.67;15.83;;;7.60;99.90;;;;;;4985634;28;20645;-72
2022/12/23 06:02:06;;;;;;;28.03;15.43;;;7.60;99.90;;;;;;4985021;28;20584;-71
2022/12/23 06:04:32;;;;;;;27.67;14.07;;;7.60;99.90;;;;;;4985901;28;20276;-72
2022/12/23 06:06:58;;;;;;;28.67;14.43;;;7.60;99.90;;;;;;4989347;28;20700;-71
2022/12/23 06:09:23;;;;;;;31.60;15.70;;;7.60;99.90;;;;;;4990800;28;20174;-72
2022/12/23 06:11:49;;;;;;;28.00;14.20;;;7.60;99.90;;;;;;4987326;28;20174;-72
2022/12/23 06:14:15;;;;;;;28.53;15.33;;;7.60;99.90;;;;;;4990803;28;20710;-72
2022/12/23 06:16:40;;;;;;;29.90;14.70;;;7.70;99.90;;;;;;4987186;28;20296;-72
2022/12/23 06:19:06;;;;;;;28.03;14.33;;;7.70;99.90;;;;;;5019204;28;20214;-71
2022/12/23 06:21:32;;;;;;;27.93;14.33;;;7.70;99.90;;;;;;4989721;28;20212;-72
2022/12/23 06:23:57;;;;;;;28.90;16.00;;;7.70;99.90;;;;;;4985465;28;20669;-71
2022/12/23 06:26:23;;;;;;;31.80;15.50;;;7.70;99.90;;;;;;4990011;28;20676;-71
2022/12/23 06:28:48;;;;;;;25.97;14.27;;;7.70;99.90;;;;;;4988383;28;20585;-71
2022/12/23 06:31:15;;;;;;;26.67;15.43;;;7.70;99.90;;;;;;4986386;28;20248;-71
2022/12/23 06:33:40;;;;;;;31.13;14.50;;;7.70;99.90;;;;;;4989721;28;20212;-72
2022/12/23 06:36:06;;;;;;;29.23;15.00;;;7.60;99.90;;;;;;4987940;28;20178;-73
2022/12/23 06:38:32;;;;;;;30.43;16.27;;;7.70;99.90;;;;;;4986860;28;20202;-71
2022/12/23 06:40:58;;;;;;;32.60;16.50;;;7.70;99.90;;;;;;4987988;28;20213;-71
2022/12/23 06:43:23;;;;;;;29.67;14.57;;;7.70;99.90;;;;;;4984010;28;20221;-72
2022/12/23 06:45:49;;;;;;;32.67;15.50;;;7.70;99.90;;;;;;4982355;28;20301;-72
2022/12/23 06:48:15;;;;;;;33.13;16.23;;;7.70;99.90;;;;;;4988636;28;20252;-72
2022/12/23 06:50:41;;;;;;;29.77;14.53;;;7.80;99.90;;;;;;5017487;23;20308;-72
2022/12/23 06:53:07;;;;;;;33.63;15.73;;;7.80;99.90;;;;;;5011629;28;20795;-72
2022/12/23 06:55:33;;;;;;;27.00;13.73;;;7.70;99.90;;;;;;4999360;28;20205;-72
2022/12/23 06:57:58;;;;;;;34.57;15.93;;;7.70;99.90;;;;;;4987469;28;20233;-72
2022/12/23 07:00:24;;;;;;;30.40;14.97;;;7.70;99.90;;;;;;4987602;28;20571;-72
2022/12/23 07:02:52;;;;;;;32.83;15.50;;;7.70;99.90;;;;;;4987577;28;20201;-72
2022/12/23 07:05:18;;;;;;;28.60;15.13;;;7.70;99.90;;;;;;5002757;28;20215;-72
2022/12/23 07:07:43;;;;;;;31.87;14.93;;;7.70;99.90;;;;;;5010653;28;20722;-72
2022/12/23 07:10:09;;;;;;;30.57;15.10;;;7.70;99.90;;;;;;5006440;28;20222;-72
2022/12/23 07:12:35;;;;;;;30.10;14.73;;;7.70;99.90;;;;;;5011381;28;20295;-72
2022/12/23 07:15:01;;;;;;;29.27;14.13;;;7.70;99.90;;;;;;5008901;28;20178;-71
2022/12/23 07:17:27;;;;;;;29.33;14.13;;;7.70;99.90;;;;;;5006862;28;20201;-72
2022/12/23 07:19:52;;;;;;;27.97;14.53;;;7.70;99.90;;;;;;5003389;28;20209;-72
2022/12/23 07:22:19;;;;;;;29.00;13.70;;;7.70;99.90;;;;;;5008954;28;20231;-72
2022/12/23 07:24:45;;;;;;;31.70;14.67;;;7.60;99.90;;;;;;5006930;28;20209;-72
2022/12/23 07:27:10;;;;;;;33.90;14.27;;;7.60;99.90;;;;;;5006756;28;20178;-72
2022/12/23 07:29:36;;;;;;;33.63;14.40;;;7.60;99.90;;;;;;5007558;28;20656;-72
2022/12/23 07:32:02;;;;;;;32.60;14.03;;;7.60;99.90;;;;;;5002840;28;20194;-71
2022/12/23 07:34:27;;;;;;;29.00;13.23;;;7.70;99.90;;;;;;5010372;28;20528;-72
2022/12/23 07:36:54;;;;;;;28.43;13.57;;;7.60;99.90;;;;;;5004939;28;20221;-71
2022/12/23 07:39:20;;;;;;;31.80;14.40;;;7.70;99.90;;;;;;5003847;28;20201;-73
2022/12/23 07:41:45;;;;;;;30.33;13.17;;;7.70;99.90;;;;;;5009391;28;20183;-71
2022/12/23 07:44:11;;;;;;;25.60;12.90;;;7.60;99.90;;;;;;5005437;28;20242;-72
2022/12/23 07:46:37;;;;;;;27.70;13.67;;;7.70;99.90;;;;;;5004625;28;20288;-72
2022/12/23 07:49:03;;;;;;;31.07;13.43;;;7.70;99.90;;;;;;5007096;28;20209;-72
2022/12/23 07:51:29;;;;;;;29.40;12.53;;;7.70;99.90;;;;;;5020699;28;20238;-72
2022/12/23 07:53:55;;;;;;;30.23;13.10;;;7.60;99.90;;;;;;5027211;28;20188;-72
2022/12/23 07:56:20;;;;;;;31.30;13.30;;;7.60;99.90;;;;;;5028181;28;20284;-72
2022/12/23 07:58:50;;;;;;;31.63;14.20;;;7.70;99.90;;;;;;5025636;28;20691;-72
2022/12/23 08:01:16;;;;;;;30.70;14.47;;;7.70;99.90;;;;;;5028473;28;20208;-72
2022/12/23 08:03:42;;;;;;;34.10;14.03;;;7.70;99.90;;;;;;5028567;28;20223;-72
2022/12/23 08:06:11;;;;;;;29.17;13.87;;;7.70;99.90;;;;;;5022850;28;20181;-72
2022/12/23 08:08:37;;;;;;;37.60;14.60;;;7.70;99.90;;;;;;5029283;28;20204;-72
2022/12/23 08:11:06;;;;;;;36.13;14.10;;;7.70;99.90;;;;;;5022844;28;20803;-72
2022/12/23 08:13:34;;;;;;;34.97;15.03;;;7.70;99.90;;;;;;5029867;28;20204;-72
2022/12/23 08:16:01;;;;;;;34.63;14.57;;;7.70;99.90;;;;;;5026718;28;20558;-71
2022/12/23 08:18:29;;;;;;;32.43;14.40;;;7.70;99.90;;;;;;5025009;28;20621;-73
2022/12/23 08:21:03;;;;;;;36.23;15.13;;;7.70;99.90;;;;;;5027733;28;20682;-73
2022/12/23 08:23:31;;;;;;;37.47;16.17;;;7.70;99.90;;;;;;5026950;28;20207;-72
2022/12/23 08:26:23;;;;;;;37.07;15.00;;;7.70;99.90;;;;;;5020691;28;20207;-72
2022/12/23 08:28:52;;;;;;;36.17;14.33;;;7.70;99.90;;;;;;5021233;28;20223;-73
2022/12/23 08:31:25;;;;;;;37.33;15.20;;;7.70;99.90;;;;;;5026662;28;20204;-73
2022/12/23 08:33:53;;;;;;;37.53;14.37;;;7.70;99.90;;;;;;5029100;28;20201;-74
2022/12/23 08:36:29;;;;;;;37.93;14.67;;;7.70;99.90;;;;;;5025128;28;20168;-73
2022/12/23 08:38:56;;;;;;;42.27;15.43;;;7.80;99.90;;;;;;5022717;28;20173;-73
2022/12/23 08:41:30;;;;;;;37.90;15.40;;;7.70;99.90;;;;;;5029381;28;20205;-73
2022/12/23 08:43:57;;;;;;;33.60;14.60;;;7.80;99.90;;;;;;5024247;28;20248;-73
2022/12/23 08:46:23;;;;;;;38.90;14.60;;;7.70;99.90;;;;;;5023323;28;20232;-72
2022/12/23 08:48:49;;;;;;;33.37;14.80;;;7.70;99.90;;;;;;5028267;28;20208;-73
2022/12/23 08:51:17;;;;;;;37.93;15.50;;;7.70;99.90;;;;;;5023904;28;20281;-73
2022/12/23 08:53:43;;;;;;;38.80;14.67;;;7.70;99.90;;;;;;5029680;28;20831;-73
2022/12/23 08:56:17;;;;;;;40.73;15.33;;;7.60;99.90;;;;;;5026629;28;20263;-73
2022/12/23 08:58:45;;;;;;;39.50;14.57;;;7.60;99.90;;;;;;5026818;28;20200;-72
2022/12/23 09:01:13;;;;;;;41.33;15.97;;;7.60;99.90;;;;;;5027172;28;20220;-72
2022/12/23 09:03:41;;;;;;;44.17;16.47;;;7.60;99.90;;;;;;5026359;28;20227;-73
2022/12/23 09:06:13;;;;;;;41.73;16.87;;;7.70;99.90;;;;;;5022529;28;20187;-73
2022/12/23 09:08:39;;;;;;;46.23;16.53;;;7.70;99.90;;;;;;5006418;28;20243;-72
2022/12/23 09:11:12;;;;;;;45.53;16.43;;;7.80;99.90;;;;;;5025513;28;20213;-72
2022/12/23 09:13:38;;;;;;;35.70;14.87;;;7.80;99.90;;;;;;5027478;28;20791;-73
2022/12/23 09:16:04;;;;;;;38.73;15.23;;;7.70;99.90;;;;;;5034778;28;20236;-73
2022/12/23 09:18:30;;;;;;;40.10;15.57;;;7.70;99.90;;;;;;5031483;28;20295;-73
2022/12/23 09:21:01;;;;;;;41.50;15.93;;;7.80;99.90;;;;;;5027090;28;20295;-73
2022/12/23 09:23:27;;;;;;;42.33;15.57;;;7.70;99.90;;;;;;5032081;28;20261;-73
2022/12/23 09:25:53;;;;;;;44.57;14.77;;;7.80;99.90;;;;;;5025011;28;20235;-72
2022/12/23 09:28:19;;;;;;;41.97;14.67;;;7.80;99.90;;;;;;5030808;28;20203;-73
2022/12/23 09:30:45;;;;;;;43.07;15.60;;;7.80;99.90;;;;;;5028804;28;20211;-73
2022/12/23 09:33:10;;;;;;;38.40;14.93;;;7.80;99.90;;;;;;5024548;28;20212;-73
2022/12/23 09:35:36;;;;;;;39.00;14.30;;;7.80;99.90;;;;;;5035357;28;20180;-74
2022/12/23 09:38:01;;;;;;;36.63;14.27;;;7.80;99.90;;;;;;5030702;28;20665;-73
2022/12/23 09:40:31;;;;;;;36.87;14.60;;;7.80;99.90;;;;;;5026004;28;20207;-73
2022/12/23 09:43:44;;;;;;;33.07;12.40;;;7.80;99.90;;;;;;5035360;28;20374;-73
2022/12/23 09:46:18;;;;;;;33.43;14.53;;;7.80;99.90;;;;;;4976010;28;20216;-72
2022/12/23 09:49:10;;;;;;;38.07;13.20;;;7.80;99.90;;;;;;5039486;28;20239;-73
2022/12/23 09:51:35;;;;;;;28.87;12.17;;;7.90;99.90;;;;;;5031893;28;20243;-73
2022/12/23 09:54:09;;;;;;;31.77;13.17;;;7.90;99.90;;;;;;5033506;28;20174;-73
2022/12/23 09:56:47;;;;;;;31.27;13.30;;;7.90;99.90;;;;;;5039507;28;20211;-73
2022/12/23 09:59:37;;;;;;;36.57;13.30;;;7.90;99.90;;;;;;5033122;28;20243;-73
2022/12/23 10:02:05;;;;;;;32.90;13.77;;;7.90;99.90;;;;;;5031730;28;20246;-72
2022/12/23 10:04:35;;;;;;;32.33;13.80;;;7.90;99.90;;;;;;5037361;28;20208;-73
2022/12/23 10:07:03;;;;;;;30.57;13.07;;;7.90;99.90;;;;;;5029550;28;20205;-71
2022/12/23 10:09:37;;;;;;;32.23;14.33;;;7.90;99.90;;;;;;5037614;28;20227;-73
2022/12/23 10:12:13;;;;;;;30.20;12.53;;;7.90;99.90;;;;;;5031839;28;20177;-73
2022/12/23 10:14:40;;;;;;;29.80;12.93;;;7.90;99.90;;;;;;5026797;28;20277;-73
2022/12/23 10:17:16;;;;;;;26.90;11.93;;;7.90;99.90;;;;;;5029494;28;20335;-73
2022/12/23 10:19:46;;;;;;;27.10;12.03;;;7.90;99.90;;;;;;5025057;28;20224;-73
2022/12/23 10:22:29;;;;;;;21.57;10.00;;;8.00;99.90;;;;;;5027683;28;20703;-73
2022/12/23 10:24:57;;;;;;;22.53;10.30;;;8.00;99.90;;;;;;5026835;28;20212;-72
2022/12/23 10:27:30;;;;;;;22.53;10.60;;;8.00;99.90;;;;;;5030200;28;20184;-73
2022/12/23 10:30:01;;;;;;;18.17;8.93;;;8.20;99.90;;;;;;5027469;28;20210;-73
2022/12/23 10:32:46;;;;;;;23.93;11.27;;;8.20;99.90;;;;;;5028385;28;20235;-73
2022/12/23 10:35:34;;;;;;;19.80;9.83;;;8.30;99.90;;;;;;5024356;28;20782;-73
2022/12/23 10:38:31;;;;;;;22.77;9.57;;;8.30;99.90;;;;;;5025343;28;20693;-71
2022/12/23 10:41:41;;;;;;;18.47;10.17;;;8.40;99.90;;;;;;5024652;28;20213;-73
2022/12/23 10:44:15;;;;;;;20.10;9.70;;;8.50;99.90;;;;;;5028525;28;20228;-73
2022/12/23 10:47:04;;;;;;;24.00;10.93;;;8.50;99.90;;;;;;5024937;28;20207;-73
2022/12/23 10:50:07;;;;;;;22.00;12.57;;;8.50;99.90;;;;;;5028336;28;20244;-72
2022/12/23 10:52:36;;;;;;;16.80;8.77;;;8.40;99.90;;;;;;5017406;28;20283;-73
2022/12/23 10:55:01;;;;;;;17.03;8.50;;;8.40;99.90;;;;;;5023222;28;20228;-73
2022/12/23 10:57:29;;;;;;;15.70;8.33;;;8.40;99.90;;;;;;5030240;28;20180;-73
2022/12/23 10:59:56;;;;;;;16.97;8.63;;;8.50;99.90;;;;;;5026273;28;20197;-71
2022/12/23 11:02:40;;;;;;;18.73;8.30;;;8.50;99.90;;;;;;5024902;28;20204;-72
2022/12/23 11:05:16;;;;;;;16.23;8.03;;;8.60;99.90;;;;;;5027647;28;20290;-72
2022/12/23 11:07:43;;;;;;;15.30;7.53;;;8.70;99.90;;;;;;5023730;28;20283;-73
2022/12/23 11:10:20;;;;;;;14.10;7.50;;;8.60;99.90;;;;;;5028999;28;20303;-72
2022/12/23 11:12:49;;;;;;;15.60;8.27;;;8.60;99.90;;;;;;5025353;28;20208;-73
2022/12/23 11:15:37;;;;;;;17.07;9.23;;;8.50;99.90;;;;;;5024484;28;20196;-73
2022/12/23 11:18:12;;;;;;;16.80;9.70;;;8.50;99.90;;;;;;5028149;28;20552;-73
2022/12/23 11:20:40;;;;;;;19.00;11.00;;;8.50;99.90;;;;;;5004323;28;20207;-73
2022/12/23 11:23:26;;;;;;;18.83;10.73;;;8.40;99.90;;;;;;5021560;28;20236;-73
2022/12/23 11:26:18;;;;;;;22.10;12.30;;;8.40;99.90;;;;;;5026126;28;20200;-73
2022/12/23 11:28:51;;;;;;;16.90;9.63;;;8.30;99.90;;;;;;5016658;28;20288;-73
2022/12/23 11:31:25;;;;;;;16.17;9.93;;;8.20;99.90;;;;;;5060196;28;20214;-73
2022/12/23 11:33:57;;;;;;;22.97;11.70;;;8.20;99.90;;;;;;5023699;28;20312;-73
2022/12/23 11:36:26;;;;;;;21.90;11.53;;;8.20;99.90;;;;;;5027827;28;20165;-73
2022/12/23 11:39:22;;;;;;;21.43;12.40;;;8.10;99.90;;;;;;5026783;28;20176;-73
2022/12/23 11:41:51;;;;;;;20.73;11.83;;;8.20;99.90;;;;;;5022261;28;20232;-73
2022/12/23 11:44:32;;;;;;;23.73;13.20;;;8.20;99.90;;;;;;5029370;28;20291;-73
2022/12/23 11:47:15;;;;;;;24.13;13.37;;;8.20;99.90;;;;;;5024310;28;20201;-73
2022/12/23 11:49:53;;;;;;;23.17;12.70;;;8.20;99.90;;;;;;5021989;28;20235;-73
2022/12/23 11:52:23;;;;;;;25.07;12.50;;;8.20;99.90;;;;;;5025360;28;20282;-73
2022/12/23 11:55:00;;;;;;;25.17;13.50;;;8.10;99.90;;;;;;5026958;28;20267;-73
2022/12/23 11:57:38;;;;;;;26.87;13.73;;;8.10;99.90;;;;;;5027359;28;20172;-73
2022/12/23 12:00:05;;;;;;;24.60;13.20;;;8.20;99.90;;;;;;5024976;28;20249;-72
2022/12/23 12:02:35;;;;;;;29.73;15.20;;;8.20;99.90;;;;;;5024442;28;20653;-73
2022/12/23 12:05:07;;;;;;;27.23;14.83;;;8.20;99.90;;;;;;5027513;28;20205;-71
2022/12/23 12:07:34;;;;;;;27.23;13.67;;;8.20;99.90;;;;;;5023851;28;20196;-73
2022/12/23 12:10:00;;;;;;;24.47;12.77;;;8.20;99.90;;;;;;5023084;28;20204;-72
2022/12/23 12:12:27;;;;;;;26.77;13.70;;;8.10;99.90;;;;;;5027993;28;20176;-73
2022/12/23 12:14:56;;;;;;;21.30;12.77;;;8.20;99.90;;;;;;5026928;28;20260;-72
2022/12/23 12:17:22;;;;;;;21.23;12.37;;;8.20;99.90;;;;;;5026293;28;20679;-73
2022/12/23 12:19:53;;;;;;;21.40;12.47;;;8.10;99.90;;;;;;5024684;28;20239;-73
2022/12/23 12:22:33;;;;;;;23.67;12.30;;;8.20;99.90;;;;;;5029790;28;20196;-73
2022/12/23 12:25:05;;;;;;;23.20;12.10;;;8.20;99.90;;;;;;5026129;28;20299;-73
2022/12/23 12:27:37;;;;;;;19.37;11.47;;;8.20;99.90;;;;;;5025690;28;20254;-72
2022/12/23 12:30:06;;;;;;;18.33;10.63;;;8.20;99.90;;;;;;5024117;28;20675;-72
2022/12/23 12:32:39;;;;;;;21.80;11.90;;;8.30;99.90;;;;;;5027923;28;20258;-73
2022/12/23 12:35:13;;;;;;;18.77;11.23;;;8.30;99.90;;;;;;5022354;28;20726;-72
2022/12/23 12:38:05;;;;;;;18.50;10.53;;;8.30;99.90;;;;;;5026327;28;20211;-73
2022/12/23 12:40:54;;;;;;;16.57;10.37;;;8.30;99.90;;;;;;5024477;28;20204;-72
2022/12/23 12:43:59;;;;;;;18.17;10.60;;;8.40;99.90;;;;;;5022874;28;20215;-72
2022/12/23 12:46:59;;;;;;;16.40;9.27;;;8.50;99.90;;;;;;4962287;28;20290;-73
2022/12/23 12:50:05;;;;;;;16.77;9.83;;;8.40;99.90;;;;;;5011024;28;20197;-73
2022/12/23 12:55:18;;;;;;;14.17;8.70;;;8.40;99.90;;;;;;5035874;28;20681;-73
2022/12/23 12:57:44;;;;;;;13.57;8.43;;;8.50;99.90;;;;;;5026509;28;20230;-73
2022/12/23 13:00:18;;;;;;;13.50;8.33;;;8.50;99.90;;;;;;5019197;28;20829;-73
2022/12/23 13:02:46;;;;;;;14.00;8.23;;;8.50;99.90;;;;;;5025551;28;20256;-72
2022/12/23 13:05:25;;;;;;;13.67;9.07;;;8.50;99.90;;;;;;5028499;28;21469;-72
2022/12/23 13:08:05;;;;;;;14.93;8.43;;;8.50;99.90;;;;;;5023110;28;20638;-74
2022/12/23 13:10:46;;;;;;;13.40;9.07;;;8.50;99.90;;;;;;5021574;28;20219;-73
2022/12/23 13:13:27;;;;;;;15.10;9.17;;;8.50;99.90;;;;;;5025882;28;20283;-73
2022/12/23 13:16:06;;;;;;;15.50;9.50;;;8.50;99.90;;;;;;5025311;28;20209;-70
2022/12/23 13:18:34;;;;;;;14.97;9.67;;;8.50;99.90;;;;;;5025277;28;20203;-72
2022/12/23 13:21:18;;;;;;;13.63;9.17;;;8.50;99.90;;;;;;5022922;28;20536;-72
2022/12/23 13:23:56;;;;;;;15.13;8.97;;;8.50;99.90;;;;;;5023628;28;20211;-72
2022/12/23 13:27:02;;;;;;;16.00;9.53;;;8.50;99.90;;;;;;5019081;28;20762;-73
2022/12/23 13:29:33;;;;;;;17.87;9.83;;;8.40;99.90;;;;;;4968219;28;20206;-72
2022/12/23 13:32:28;;;;;;;17.63;10.63;;;8.40;99.90;;;;;;5016005;28;20716;-73
2022/12/23 13:35:17;;;;;;;17.37;9.73;;;8.30;99.90;;;;;;5023086;28;20236;-71